CW8371 Weather Reports


Display with metric or nautical units.
time (UTC)temp
F
wind
direction
speed
MPH
gust
MPH
rain 1hr
in
rain 24hr
in
rain mn
in
humidity
%
barometer
mb
20190627100003 62 0 0.0 0.0 0.00 0.00 0.00 95 1018.9
20190627095503 62 103 0.0 2.0 0.00 0.00 0.00 95 1019.0
20190627095003 62 103 0.0 2.0 0.00 0.00 0.00 95 1019.0
20190627094503 62 0 0.0 0.0 0.00 0.00 0.00 95 1019.1
20190627094003 62 103 0.0 2.0 0.00 0.00 0.00 95 1019.0
20190627093504 62 103 0.0 3.0 0.00 0.00 0.00 95 1018.9
20190627093003 62 103 0.0 3.0 0.00 0.00 0.00 95 1018.8
20190627092504 62 0 0.0 0.0 0.00 0.00 0.00 95 1018.8
20190627092003 62 0 0.0 0.0 0.00 0.00 0.00 95 1018.7
20190627091503 62 103 0.0 2.0 0.00 0.00 0.00 95 1018.7
20190627091003 62 103 0.0 2.0 0.00 0.00 0.00 95 1018.5
20190627090503 62 0 0.0 0.0 0.00 0.00 0.00 95 1018.6
20190627090003 62 0 0.0 0.0 0.00 0.00 0.00 95 1018.7
20190627085503 62 0 0.0 0.0 0.00 0.00 0.00 95 1018.7
20190627085004 62 0 0.0 0.0 0.00 0.00 0.00 95 1018.5
20190627084503 62 0 0.0 0.0 0.00 0.00 0.00 94 1018.5
20190627084003 62 0 0.0 0.0 0.00 0.00 0.00 94 1018.5
20190627083503 62 0 0.0 0.0 0.00 0.00 0.00 94 1018.6
20190627083004 62 0 0.0 0.0 0.00 0.00 0.00 94 1018.7
20190627082504 62 0 0.0 0.0 0.00 0.00 0.00 94 1018.6
20190627082003 62 0 0.0 0.0 0.00 0.00 0.00 94 1018.8
20190627081503 62 0 0.0 0.0 0.00 0.00 0.00 94 1018.8
20190627081003 62 0 0.0 0.0 0.00 0.00 0.00 94 1018.7
20190627080503 62 0 0.0 0.0 0.00 0.00 0.00 94 1018.7
20190627080003 62 0 0.0 0.0 0.00 0.00 0.00 94 1018.9
20190627075503 62 0 0.0 0.0 0.00 0.00 0.00 94 1019.0
20190627075004 62 0 0.0 0.0 0.00 0.00 0.00 94 1019.0
20190627074504 62 0 0.0 0.0 0.00 0.00 0.00 94 1019.1
20190627074003 62 0 0.0 0.0 0.00 0.00 0.00 93 1019.1
20190627073503 62 0 0.0 0.0 0.00 0.00 0.00 93 1019.1
20190627073003 62 0 0.0 0.0 0.00 0.00 0.00 93 1019.1
20190627072503 62 0 0.0 0.0 0.00 0.00 0.00 93 1019.0
20190627072004 62 0 0.0 0.0 0.00 0.00 0.00 93 1018.8
20190627071504 62 0 0.0 0.0 0.00 0.00 0.00 93 1018.8
20190627071004 62 0 0.0 0.0 0.00 0.00 0.00 93 1018.7
20190627070503 62 0 0.0 0.0 0.00 0.00 0.00 93 1018.8
20190627070003 62 0 0.0 0.0 0.00 0.00 0.00 93 1018.8
20190627065503 62 0 0.0 0.0 0.00 0.00 0.00 93 1018.7
20190627065003 62 0 0.0 0.0 0.00 0.00 0.00 93 1018.6
20190627064503 62 0 0.0 0.0 0.00 0.00 0.00 93 1018.5
20190627064003 62 0 0.0 0.0 0.00 0.00 0.00 93 1018.7
20190627063504 62 103 0.0 4.0 0.00 0.00 0.00 93 1018.5
20190627063004 62 103 0.0 4.0 0.00 0.00 0.00 93 1018.6
20190627062503 63 0 0.0 0.0 0.00 0.00 0.00 93 1018.6
20190627062003 63 0 0.0 0.0 0.00 0.00 0.00 93 1018.6
20190627061503 63 103 0.0 2.0 0.00 0.00 0.00 93 1018.5
20190627061003 63 103 0.0 7.0 0.00 0.00 0.00 92 1018.4
20190627060503 63 105 1.0 7.0 0.00 0.00 0.00 92 1018.5
20190627060003 63 107 1.0 7.0 0.00 0.00 0.00 92 1018.5
20190627055503 63 109 0.0 7.0 0.00 0.00 0.00 92 1018.4
20190627055004 63 115 0.0 2.0 0.00 0.00 0.00 92 1018.4
20190627054504 63 115 0.0 2.0 0.00 0.00 0.00 92 1018.3
20190627054003 63 115 0.0 1.0 0.00 0.00 0.00 92 1018.3
20190627053503 63 115 0.0 2.0 0.00 0.00 0.00 92 1018.4
20190627053003 63 115 0.0 2.0 0.00 0.00 0.00 92 1018.4
20190627052503 63 115 0.0 3.0 0.00 0.00 0.00 92 1018.2
20190627052003 63 115 0.0 3.0 0.00 0.00 0.00 92 1018.2
20190627051503 63 115 0.0 2.0 0.00 0.00 0.00 92 1018.2
20190627051003 63 115 0.0 2.0 0.00 0.00 0.00 92 1018.3
20190627050504 63 115 0.0 2.0 0.00 0.00 0.00 92 1018.3
20190627050004 63 115 0.0 2.0 0.00 0.00 0.00 92 1018.4
20190627045503 63 0 0.0 0.0 0.00 0.00 0.00 92 1018.4
20190627045003 63 0 0.0 0.0 0.00 0.00 0.00 91 1018.3
20190627044503 64 0 0.0 0.0 0.00 0.00 0.00 91 1018.1
20190627044003 64 0 0.0 0.0 0.00 0.00 0.00 91 1018.0
20190627043503 64 115 0.0 1.0 0.00 0.00 0.00 91 1017.9
20190627043003 64 115 0.0 1.0 0.00 0.00 0.00 91 1017.8
20190627042503 64 115 0.0 3.0 0.00 0.00 0.00 91 1017.8
20190627042004 64 115 0.0 8.0 0.00 0.00 0.00 91 1017.8
20190627041503 64 114 1.0 8.0 0.00 0.00 0.00 91 1017.6
20190627041003 64 113 1.0 7.0 0.00 0.00 0.00 91 1017.6
20190627040503 64 113 1.0 7.0 0.00 0.00 0.00 91 1017.7
20190627040003 64 114 1.0 6.0 0.00 0.00 0.00 91 1018.1
20190627035503 64 115 1.0 6.0 0.00 0.00 0.00 91 1018.2
20190627035003 64 115 1.0 3.0 0.00 0.00 0.00 91 1018.4
20190627034503 64 0 0.0 0.0 0.00 0.00 0.00 91 1017.8
20190627034003 64 0 0.0 0.0 0.00 0.00 0.00 91 1017.8
20190627033503 64 0 0.0 0.0 0.00 0.00 0.00 91 1017.6
20190627033004 64 0 0.0 0.0 0.00 0.00 0.00 91 1017.3
20190627032503 64 0 0.0 0.0 0.00 0.00 0.00 91 1017.1
20190627032003 64 115 0.0 1.0 0.00 0.00 0.00 91 1017.1
20190627031503 64 115 0.0 2.0 0.00 0.00 0.00 91 1017.3
20190627031003 64 115 0.0 2.0 0.00 0.00 0.00 91 1016.9
20190627030503 64 115 0.0 1.0 0.00 0.00 0.00 91 1016.8
20190627030003 64 115 0.0 1.0 0.00 0.00 0.00 91 1017.0
20190627025503 64 0 0.0 0.0 0.00 0.00 0.00 90 1017.2
20190627025004 64 0 0.0 0.0 0.00 0.00 0.00 90 1017.3
20190627024504 64 0 0.0 0.0 0.00 0.00 0.00 90 1017.4
20190627024004 65 115 0.0 2.0 0.00 0.00 0.00 90 1017.5
20190627023504 65 115 0.0 2.0 0.00 0.00 0.00 89 1017.5
20190627023003 65 0 0.0 0.0 0.00 0.00 0.00 89 1017.8
20190627022503 65 0 0.0 0.0 0.00 0.00 0.00 89 1017.8
20190627022003 65 0 0.0 0.0 0.00 0.00 0.00 89 1017.7
20190627021503 65 0 0.0 0.0 0.00 0.00 0.00 89 1017.7
20190627021003 65 0 0.0 0.0 0.00 0.00 0.00 88 1017.7
20190627020503 66 115 0.0 3.0 0.00 0.00 0.00 88 1017.5
20190627020004 66 115 0.0 4.0 0.00 0.00 0.00 88 1017.3
20190627015504 66 115 0.0 4.0 0.00 0.00 0.00 87 1017.3
20190627015003 66 114 0.0 2.0 0.00 0.00 0.00 87 1017.3
20190627014503 67 115 0.0 6.0 0.00 0.00 0.00 87 1017.1
20190627014003 67 115 0.0 6.0 0.00 0.00 0.00 87 1017.1
20190627013503 67 115 0.0 6.0 0.00 0.00 0.00 87 1017.2
20190627013003 68 114 0.0 6.0 0.00 0.00 0.00 86 1017.1
20190627012503 68 111 0.0 3.0 0.00 0.00 0.00 86 1017.0
20190627012003 68 111 0.0 3.0 0.00 0.00 0.00 86 1016.7
20190627011503 69 112 1.0 8.0 0.00 0.00 0.00 86 1016.8
20190627011003 69 113 1.0 8.0 0.00 0.00 0.00 85 1016.8
20190627010503 70 113 1.0 6.0 0.00 0.00 0.00 85 1016.8
20190627010003 70 114 1.0 6.0 0.00 0.00 0.00 85 1016.7
20190627005504 71 119 1.0 8.0 0.00 0.00 0.00 84 1016.6
20190627005003 71 128 0.0 8.0 0.00 0.00 0.00 84 1016.4
20190627004503 72 133 0.0 3.0 0.00 0.00 0.00 84 1016.2
20190627004003 72 133 0.0 3.0 0.00 0.00 0.00 84 1016.2
20190627003503 73 133 0.0 3.0 0.00 0.00 0.00 83 1016.1
20190627003004 73 133 0.0 1.0 0.00 0.00 0.00 83 1015.8
20190627002503 74 0 0.0 0.0 0.00 0.00 0.00 83 1015.8
20190627002006 74 0 0.0 0.0 0.00 0.00 0.00 82 1015.8
20190627001503 74 133 0.0 1.0 0.00 0.01 0.00 82 1015.7
20190627001003 75 133 0.0 1.0 0.00 0.01 0.00 81 1015.7
20190627000503 75 0 0.0 0.0 0.00 0.01 0.00 81 1015.7
20190627000003 75 133 0.0 2.0 0.00 0.01 0.00 80 1015.5
20190626235503 76 133 0.0 3.0 0.00 0.01 0.00 79 1015.5
20190626235003 76 133 0.0 3.0 0.00 0.01 0.00 79 1015.4
20190626234505 77 133 0.0 3.0 0.00 0.01 0.00 78 1015.5
20190626234003 77 120 1.0 9.0 0.00 0.01 0.00 77 1015.4
20190626233503 78 116 1.0 9.0 0.00 0.01 0.00 76 1015.4
20190626233003 78 109 1.0 8.0 0.00 0.01 0.00 76 1015.4
20190626232503 79 112 1.0 8.0 0.00 0.01 0.00 74 1015.4
20190626232003 79 118 0.0 7.0 0.00 0.01 0.00 75 1015.4
20190626231504 80 114 1.0 9.0 0.00 0.01 0.00 73 1015.4
20190626231003 80 108 2.0 9.0 0.00 0.01 0.00 73 1015.3
20190626230504 80 113 2.0 9.0 0.00 0.02 0.00 71 1015.2
20190626230003 81 118 2.0 9.0 0.00 0.02 0.00 69 1015.1
20190626225503 82 132 0.0 7.0 0.00 0.05 0.00 70 1015.1
20190626225003 82 134 0.0 7.0 0.00 0.11 0.00 69 1015.0
20190626224503 82 138 0.0 4.0 0.00 0.15 0.00 70 1014.9
20190626224003 82 140 0.0 7.0 0.00 0.16 0.00 68 1014.9
20190626223503 82 140 0.0 7.0 0.00 0.17 0.00 68 1014.8
20190626223003 82 140 0.0 3.0 0.00 0.17 0.00 68 1014.8
20190626222504 82 140 0.0 4.0 0.00 0.17 0.00 68 1014.8
20190626222004 82 140 0.0 4.0 0.00 0.17 0.00 67 1014.7
20190626221503 83 140 0.0 2.0 0.00 0.17 0.00 68 1014.7
20190626221004 83 141 0.0 4.0 0.00 0.17 0.00 68 1014.6
20190626220504 83 142 0.0 4.0 0.00 0.17 0.00 68 1014.5
20190626220003 83 144 1.0 5.0 0.00 0.17 0.00 70 1014.4
20190626215504 82 145 1.0 5.0 0.00 0.17 0.00 66 1014.4
20190626215004 82 147 1.0 5.0 0.00 0.17 0.00 68 1014.3
20190626214504 82 158 1.0 7.0 0.00 0.17 0.00 67 1014.4
20190626214003 82 167 1.0 7.0 0.00 0.17 0.00 66 1014.4
20190626213503 83 173 1.0 5.0 0.00 0.17 0.00 66 1014.5
20190626213003 83 178 0.0 2.0 0.00 0.17 0.00 66 1014.4
20190626212503 83 178 0.0 2.0 0.00 0.17 0.00 64 1014.6
20190626212003 83 178 0.0 4.0 0.00 0.17 0.00 64 1014.6
20190626211503 84 178 0.0 4.0 0.00 0.18 0.00 65 1014.6
20190626211003 83 178 0.0 3.0 0.00 0.18 0.00 67 1014.5
20190626210503 83 178 0.0 3.0 0.00 0.18 0.00 65 1014.5
20190626210003 83 178 0.0 4.0 0.00 0.18 0.00 66 1014.4
20190626205503 83 179 1.0 6.0 0.00 0.18 0.00 67 1014.4
20190626205004 83 179 1.0 6.0 0.00 0.19 0.00 66 1014.6
20190626204504 83 179 1.0 5.0 0.00 0.19 0.00 67 1014.5
20190626204003 83 181 1.0 6.0 0.00 0.19 0.00 64 1014.5
20190626203503 83 183 1.0 6.0 0.00 0.19 0.00 64 1014.5
20190626203003 84 184 1.0 6.0 0.00 0.19 0.00 65 1014.6
20190626202503 83 183 1.0 6.0 0.00 0.19 0.00 65 1014.6
20190626202003 84 182 1.0 6.0 0.00 0.19 0.00 67 1014.7
20190626201503 83 182 1.0 5.0 0.00 0.20 0.00 68 1014.7
20190626201003 83 182 1.0 4.0 0.00 0.20 0.00 66 1014.8
20190626200503 82 182 1.0 6.0 0.00 0.21 0.00 63 1014.7
20190626200003 83 187 1.0 6.0 0.00 0.21 0.00 64 1014.8
20190626195504 83 193 1.0 6.0 0.00 0.21 0.00 64 1014.8
20190626195003 83 197 0.0 6.0 0.00 0.22 0.00 66 1014.7
20190626194503 83 198 0.0 2.0 0.00 0.22 0.00 66 1014.8
20190626194003 83 198 0.0 2.0 0.00 0.23 0.00 66 1014.7
20190626193503 83 198 0.0 2.0 0.00 0.23 0.00 63 1014.7
20190626193003 82 199 0.0 2.0 0.00 0.23 0.00 63 1014.7
20190626192503 82 200 0.0 2.0 0.00 0.23 0.00 63 1014.7
20190626192003 82 200 0.0 3.0 0.00 0.23 0.00 63 1014.6
20190626191503 83 200 0.0 3.0 0.00 0.23 0.00 62 1014.6
20190626191003 82 200 0.0 1.0 0.00 0.23 0.00 68 1014.5
20190626190504 82 212 1.0 5.0 0.00 0.23 0.00 70 1014.5
20190626190004 81 216 1.0 5.0 0.00 0.23 0.00 66 1014.6
20190626185503 81 231 0.0 3.0 0.00 0.23 0.00 66 1014.6
20190626185003 81 232 0.0 1.0 0.00 0.23 0.00 66 1014.6
20190626184503 81 232 1.0 4.0 0.00 0.23 0.00 69 1014.7
20190626184003 81 232 1.0 4.0 0.00 0.23 0.00 69 1014.7
20190626183503 82 0 0.0 0.0 0.00 0.23 0.00 68 1014.6
20190626183004 82 0 0.0 0.0 0.00 0.23 0.00 66 1014.7
20190626182503 81 232 0.0 3.0 0.00 0.24 0.00 67 1014.7
20190626182003 81 232 0.0 3.0 0.00 0.25 0.00 67 1014.7
20190626181503 80 0 0.0 0.0 0.00 0.25 0.00 68 1014.9
20190626181004 80 233 0.0 4.0 0.00 0.25 0.00 68 1014.9
20190626180503 80 233 0.0 4.0 0.00 0.26 0.00 68 1014.9
20190626180003 80 232 0.0 2.0 0.00 0.26 0.00 72 1015.0
20190626175503 80 233 0.0 2.0 0.00 0.26 0.00 71 1015.0
20190626175003 80 235 0.0 2.0 0.00 0.27 0.00 72 1015.1
20190626174505 79 235 0.0 1.0 0.00 0.27 0.00 74 1015.3
20190626174003 79 235 0.0 3.0 0.00 0.28 0.00 75 1015.4
20190626173503 78 235 0.0 3.0 0.00 0.28 0.00 75 1015.4
20190626173003 78 235 0.0 1.0 0.00 0.28 0.00 76 1015.4
20190626172503 78 235 0.0 3.0 0.00 0.29 0.00 78 1015.5
20190626172004 77 225 2.0 6.0 0.00 0.29 0.00 78 1015.5
20190626171503 77 223 2.0 6.0 0.00 0.29 0.00 78 1015.7
20190626171003 77 221 1.0 5.0 0.00 0.29 0.00 78 1015.8
20190626170504 76 221 1.0 5.0 0.00 0.30 0.00 77 1015.8
20190626170003 76 221 0.0 1.0 0.00 0.30 0.00 78 1015.7
20190626165503 76 0 0.0 0.0 0.00 0.30 0.00 77 1015.8
20190626165004 76 0 0.0 0.0 0.00 0.31 0.00 79 1015.8
20190626164503 76 221 0.0 1.0 0.00 0.31 0.00 82 1015.8
20190626164003 75 221 0.0 1.0 0.00 0.31 0.00 80 1015.7
20190626163503 75 221 0.0 3.0 0.00 0.31 0.00 79 1015.7
20190626163003 75 221 1.0 4.0 0.00 0.31 0.00 80 1015.7
20190626162503 75 221 1.0 4.0 0.00 0.31 0.00 81 1015.7
20190626162003 75 221 0.0 4.0 0.00 0.31 0.00 82 1015.7
20190626161503 74 221 0.0 1.0 0.00 0.31 0.00 82 1015.7
20190626161003 74 221 0.0 1.0 0.00 0.31 0.00 81 1015.8
20190626160503 74 0 0.0 0.0 0.00 0.31 0.00 82 1015.9
20190626160003 74 221 1.0 4.0 0.00 0.31 0.00 83 1016.0
20190626155503 73 220 2.0 6.0 0.00 0.31 0.00 81 1016.0
20190626155003 74 215 1.0 7.0 0.00 0.32 0.00 81 1016.0
20190626154504 74 210 1.0 7.0 0.00 0.33 0.00 81 1016.1
20190626154003 74 181 0.0 1.0 0.00 0.33 0.00 83 1016.1
20190626153503 73 0 0.0 0.0 0.00 0.33 0.00 83 1015.9
20190626153003 73 181 0.0 1.0 0.00 0.33 0.00 83 1016.0
20190626152503 72 176 1.0 5.0 0.00 0.33 0.00 85 1016.1
20190626152003 72 172 2.0 7.0 0.00 0.33 0.00 84 1016.1
20190626151503 72 168 1.0 7.0 0.00 0.33 0.00 84 1016.1
20190626151003 72 163 0.0 4.0 0.00 0.33 0.00 84 1016.2
20190626150503 72 163 0.0 2.0 0.00 0.33 0.00 85 1016.2
20190626150003 72 163 0.0 5.0 0.00 0.33 0.00 84 1016.2
20190626145506 72 163 1.0 5.0 0.00 0.33 0.00 85 1016.2
20190626145048 72 163 0.0 5.0 0.00 0.33 0.00 85 1016.2
20190626144503 72 163 0.0 5.0 0.00 0.33 0.00 86 1016.3
20190626144003 71 163 0.0 4.0 0.00 0.33 0.00 87 1016.3
20190626143503 71 163 0.0 4.0 0.00 0.33 0.00 89 1016.2
20190626143003 71 163 0.0 4.0 0.00 0.33 0.00 89 1016.4
20190626142503 70 163 0.0 1.0 0.00 0.33 0.00 88 1016.4
20190626142003 70 163 0.0 4.0 0.00 0.33 0.00 88 1016.3
20190626141503 70 163 0.0 4.0 0.00 0.33 0.00 89 1016.3
20190626141004 70 163 0.0 2.0 0.00 0.33 0.00 89 1016.3
20190626140503 70 163 0.0 1.0 0.00 0.33 0.00 88 1016.2
20190626140004 70 163 0.0 1.0 0.00 0.33 0.00 89 1016.3
20190626135504 70 163 0.0 1.0 0.00 0.33 0.00 91 1016.2
20190626135003 70 163 0.0 1.0 0.00 0.33 0.00 91 1016.3
20190626134503 70 163 0.0 1.0 0.00 0.33 0.00 91 1016.2
20190626134003 69 163 0.0 1.0 0.00 0.33 0.00 91 1016.2
20190626133503 69 163 0.0 1.0 0.00 0.33 0.00 91 1016.2
20190626133004 69 163 0.0 1.0 0.00 0.33 0.00 91 1016.2
20190626132503 69 163 0.0 2.0 0.00 0.33 0.00 92 1016.1
20190626132003 69 163 0.0 2.0 0.00 0.33 0.00 92 1016.0
20190626131503 68 163 0.0 2.0 0.00 0.33 0.00 93 1015.9
20190626131003 68 163 0.0 4.0 0.00 0.33 0.00 93 1015.9
20190626130503 68 163 0.0 4.0 0.00 0.33 0.00 93 1015.9
20190626130004 68 163 0.0 4.0 0.00 0.33 0.00 94 1015.9
20190626125503 68 0 0.0 0.0 0.00 0.33 0.00 95 1015.9
20190626125003 67 0 0.0 0.0 0.00 0.33 0.00 95 1016.0
20190626124503 67 163 0.0 1.0 0.00 0.33 0.00 96 1015.9
20190626124003 67 163 0.0 1.0 0.00 0.33 0.00 96 1015.9
20190626123503 67 0 0.0 0.0 0.00 0.33 0.00 96 1015.9
20190626123004 67 163 0.0 1.0 0.00 0.33 0.00 96 1015.8
20190626122504 66 163 0.0 5.0 0.00 0.33 0.00 96 1015.8
20190626122004 66 163 0.0 5.0 0.00 0.33 0.00 97 1015.8
20190626121504 67 163 0.0 2.0 0.00 0.33 0.00 97 1015.8
20190626121003 66 0 0.0 0.0 0.00 0.33 0.00 97 1015.8
20190626120503 66 163 0.0 4.0 0.00 0.33 0.00 97 1015.8
20190626120003 66 163 0.0 4.0 0.00 0.33 0.00 98 1015.8
20190626115503 66 0 0.0 0.0 0.00 0.33 0.00 98 1015.7
20190626115003 66 163 0.0 6.0 0.00 0.33 0.00 98 1015.6
20190626114503 66 163 0.0 6.0 0.00 0.33 0.00 98 1015.7
20190626114004 66 0 0.0 0.0 0.00 0.33 0.00 98 1015.7
20190626113504 66 162 0.0 1.0 0.00 0.33 0.00 98 1015.7
20190626113004 66 162 0.0 1.0 0.00 0.33 0.00 98 1015.6
20190626112503 65 162 0.0 1.0 0.00 0.33 0.00 98 1015.7
20190626112003 65 0 0.0 0.0 0.00 0.33 0.00 98 1015.7
20190626111503 65 0 0.0 0.0 0.00 0.33 0.00 98 1015.6
20190626111003 65 0 0.0 0.0 0.00 0.33 0.00 98 1015.4
20190626110503 65 0 0.0 0.0 0.00 0.33 0.00 98 1015.7
20190626110003 65 0 0.0 0.0 0.00 0.33 0.00 98 1015.6
20190626105504 65 0 0.0 0.0 0.00 0.33 0.00 98 1015.6
20190626105004 65 162 0.0 4.0 0.00 0.33 0.00 98 1015.6
20190626104503 65 162 0.0 4.0 0.00 0.33 0.00 98 1015.6
20190626104004 65 0 0.0 0.0 0.00 0.33 0.00 98 1015.6
20190626103504 65 162 0.0 1.0 0.00 0.33 0.00 98 1015.5
20190626103003 65 162 0.0 1.0 0.00 0.33 0.00 98 1015.4
20190626102503 65 162 0.0 4.0 0.00 0.33 0.00 98 1015.2
20190626102004 65 162 0.0 4.0 0.00 0.33 0.00 98 1015.2
20190626101503 65 162 0.0 4.0 0.00 0.33 0.00 98 1015.1
20190626101004 65 162 0.0 5.0 0.00 0.33 0.00 98 1015.2
20190626100504 65 162 0.0 5.0 0.00 0.33 0.00 98 1015.2